sensor_id;sensor_type;location;lat;lon;timestamp;P1;durP1;ratioP1;P2;durP2;ratioP2
45684;SDS011;46836;48.388;16.210;2024-01-30T00:01:17;23.92;;;13.15;;
45684;SDS011;46836;48.388;16.210;2024-01-30T00:03:44;15.93;;;11.65;;
45684;SDS011;46836;48.388;16.210;2024-01-30T00:06:11;20.15;;;13.40;;
45684;SDS011;46836;48.388;16.210;2024-01-30T00:08:39;21.98;;;13.20;;
45684;SDS011;46836;48.388;16.210;2024-01-30T00:11:07;18.40;;;12.32;;
45684;SDS011;46836;48.388;16.210;2024-01-30T00:13:34;20.83;;;12.80;;
45684;SDS011;46836;48.388;16.210;2024-01-30T00:16:01;23.15;;;12.85;;
45684;SDS011;46836;48.388;16.210;2024-01-30T00:18:28;16.88;;;11.45;;
45684;SDS011;46836;48.388;16.210;2024-01-30T00:20:55;20.35;;;12.63;;
45684;SDS011;46836;48.388;16.210;2024-01-30T00:23:22;16.38;;;10.85;;
45684;SDS011;46836;48.388;16.210;2024-01-30T00:25:49;19.02;;;11.90;;
45684;SDS011;46836;48.388;16.210;2024-01-30T00:28:17;20.58;;;12.55;;
45684;SDS011;46836;48.388;16.210;2024-01-30T00:30:44;22.00;;;13.23;;
45684;SDS011;46836;48.388;16.210;2024-01-30T00:33:11;21.17;;;12.35;;
45684;SDS011;46836;48.388;16.210;2024-01-30T00:35:38;19.80;;;11.65;;
45684;SDS011;46836;48.388;16.210;2024-01-30T00:38:05;21.55;;;12.73;;
45684;SDS011;46836;48.388;16.210;2024-01-30T00:40:34;21.05;;;12.15;;
45684;SDS011;46836;48.388;16.210;2024-01-30T00:43:01;17.55;;;12.27;;
45684;SDS011;46836;48.388;16.210;2024-01-30T00:45:28;21.83;;;12.38;;
45684;SDS011;46836;48.388;16.210;2024-01-30T00:47:56;19.60;;;13.18;;
45684;SDS011;46836;48.388;16.210;2024-01-30T00:50:23;18.83;;;12.82;;
45684;SDS011;46836;48.388;16.210;2024-01-30T00:52:50;19.75;;;12.70;;
45684;SDS011;46836;48.388;16.210;2024-01-30T00:55:17;24.90;;;12.90;;
45684;SDS011;46836;48.388;16.210;2024-01-30T00:57:45;15.25;;;12.40;;
45684;SDS011;46836;48.388;16.210;2024-01-30T01:00:12;21.63;;;13.07;;
45684;SDS011;46836;48.388;16.210;2024-01-30T01:02:42;18.42;;;11.82;;
45684;SDS011;46836;48.388;16.210;2024-01-30T01:05:09;21.02;;;12.88;;
45684;SDS011;46836;48.388;16.210;2024-01-30T01:07:37;23.25;;;13.30;;
45684;SDS011;46836;48.388;16.210;2024-01-30T01:10:04;19.77;;;12.40;;
45684;SDS011;46836;48.388;16.210;2024-01-30T01:12:31;15.45;;;11.85;;
45684;SDS011;46836;48.388;16.210;2024-01-30T01:14:58;15.48;;;11.85;;
45684;SDS011;46836;48.388;16.210;2024-01-30T01:17:25;16.00;;;11.25;;
45684;SDS011;46836;48.388;16.210;2024-01-30T01:19:53;26.65;;;14.65;;
45684;SDS011;46836;48.388;16.210;2024-01-30T01:22:20;20.85;;;13.70;;
45684;SDS011;46836;48.388;16.210;2024-01-30T01:24:47;17.05;;;12.63;;
45684;SDS011;46836;48.388;16.210;2024-01-30T01:27:14;22.70;;;13.38;;
45684;SDS011;46836;48.388;16.210;2024-01-30T01:29:42;21.60;;;11.55;;
45684;SDS011;46836;48.388;16.210;2024-01-30T01:32:09;19.40;;;12.10;;
45684;SDS011;46836;48.388;16.210;2024-01-30T01:34:36;17.20;;;12.20;;
45684;SDS011;46836;48.388;16.210;2024-01-30T01:37:03;18.33;;;13.25;;
45684;SDS011;46836;48.388;16.210;2024-01-30T01:39:30;17.65;;;12.30;;
45684;SDS011;46836;48.388;16.210;2024-01-30T01:41:57;19.23;;;12.38;;
45684;SDS011;46836;48.388;16.210;2024-01-30T01:44:24;16.50;;;13.00;;
45684;SDS011;46836;48.388;16.210;2024-01-30T01:46:51;19.80;;;12.30;;
45684;SDS011;46836;48.388;16.210;2024-01-30T01:49:20;16.67;;;11.93;;
45684;SDS011;46836;48.388;16.210;2024-01-30T01:51:50;18.20;;;12.90;;
45684;SDS011;46836;48.388;16.210;2024-01-30T01:54:20;18.17;;;11.32;;
45684;SDS011;46836;48.388;16.210;2024-01-30T01:56:47;18.10;;;11.80;;
45684;SDS011;46836;48.388;16.210;2024-01-30T01:59:15;21.85;;;12.88;;
45684;SDS011;46836;48.388;16.210;2024-01-30T02:01:42;18.30;;;12.07;;
45684;SDS011;46836;48.388;16.210;2024-01-30T02:04:09;17.80;;;12.27;;
45684;SDS011;46836;48.388;16.210;2024-01-30T02:06:37;23.90;;;13.13;;
45684;SDS011;46836;48.388;16.210;2024-01-30T02:09:05;17.90;;;12.60;;
45684;SDS011;46836;48.388;16.210;2024-01-30T02:11:32;21.05;;;14.00;;
45684;SDS011;46836;48.388;16.210;2024-01-30T02:14:05;18.30;;;12.55;;
45684;SDS011;46836;48.388;16.210;2024-01-30T02:16:32;15.55;;;11.57;;
45684;SDS011;46836;48.388;16.210;2024-01-30T02:18:59;16.95;;;12.23;;
45684;SDS011;46836;48.388;16.210;2024-01-30T02:21:26;20.60;;;13.02;;
45684;SDS011;46836;48.388;16.210;2024-01-30T02:23:54;17.90;;;13.07;;
45684;SDS011;46836;48.388;16.210;2024-01-30T02:26:22;23.25;;;13.27;;
45684;SDS011;46836;48.388;16.210;2024-01-30T02:28:49;18.20;;;12.15;;
45684;SDS011;46836;48.388;16.210;2024-01-30T02:31:16;18.67;;;12.10;;
45684;SDS011;46836;48.388;16.210;2024-01-30T02:33:43;19.83;;;13.15;;
45684;SDS011;46836;48.388;16.210;2024-01-30T02:36:10;19.95;;;11.32;;
45684;SDS011;46836;48.388;16.210;2024-01-30T02:38:37;19.58;;;12.80;;
45684;SDS011;46836;48.388;16.210;2024-01-30T02:41:04;20.10;;;12.50;;
45684;SDS011;46836;48.388;16.210;2024-01-30T02:43:31;19.17;;;12.60;;
45684;SDS011;46836;48.388;16.210;2024-01-30T02:45:58;19.70;;;12.95;;
45684;SDS011;46836;48.388;16.210;2024-01-30T02:48:27;22.23;;;12.88;;
45684;SDS011;46836;48.388;16.210;2024-01-30T02:50:54;19.02;;;12.43;;
45684;SDS011;46836;48.388;16.210;2024-01-30T02:53:21;17.98;;;12.35;;
45684;SDS011;46836;48.388;16.210;2024-01-30T02:55:48;20.73;;;12.68;;
45684;SDS011;46836;48.388;16.210;2024-01-30T02:58:15;15.85;;;12.35;;
45684;SDS011;46836;48.388;16.210;2024-01-30T03:00:42;18.40;;;12.57;;
45684;SDS011;46836;48.388;16.210;2024-01-30T03:03:10;18.38;;;12.15;;
45684;SDS011;46836;48.388;16.210;2024-01-30T03:05:37;22.20;;;12.35;;
45684;SDS011;46836;48.388;16.210;2024-01-30T03:08:04;17.80;;;12.57;;
45684;SDS011;46836;48.388;16.210;2024-01-30T03:10:32;18.65;;;11.45;;
45684;SDS011;46836;48.388;16.210;2024-01-30T03:12:59;23.52;;;11.85;;
45684;SDS011;46836;48.388;16.210;2024-01-30T03:15:26;19.88;;;11.70;;
45684;SDS011;46836;48.388;16.210;2024-01-30T03:17:53;22.40;;;12.48;;
45684;SDS011;46836;48.388;16.210;2024-01-30T03:20:20;18.15;;;12.75;;
45684;SDS011;46836;48.388;16.210;2024-01-30T03:22:47;23.63;;;13.25;;
45684;SDS011;46836;48.388;16.210;2024-01-30T03:25:14;17.50;;;11.85;;
45684;SDS011;46836;48.388;16.210;2024-01-30T03:27:42;21.45;;;12.68;;
45684;SDS011;46836;48.388;16.210;2024-01-30T03:30:09;19.92;;;12.55;;
45684;SDS011;46836;48.388;16.210;2024-01-30T03:32:36;22.88;;;13.60;;
45684;SDS011;46836;48.388;16.210;2024-01-30T03:35:03;24.63;;;13.27;;
45684;SDS011;46836;48.388;16.210;2024-01-30T03:37:31;20.58;;;13.15;;
45684;SDS011;46836;48.388;16.210;2024-01-30T03:39:58;24.15;;;13.75;;
45684;SDS011;46836;48.388;16.210;2024-01-30T03:42:25;22.80;;;14.40;;
45684;SDS011;46836;48.388;16.210;2024-01-30T03:44:52;20.63;;;13.20;;
45684;SDS011;46836;48.388;16.210;2024-01-30T03:47:20;18.02;;;13.35;;
45684;SDS011;46836;48.388;16.210;2024-01-30T03:49:47;22.08;;;14.32;;
45684;SDS011;46836;48.388;16.210;2024-01-30T03:52:14;21.50;;;13.82;;
45684;SDS011;46836;48.388;16.210;2024-01-30T03:54:42;24.17;;;15.00;;
45684;SDS011;46836;48.388;16.210;2024-01-30T03:57:09;20.15;;;13.13;;
45684;SDS011;46836;48.388;16.210;2024-01-30T03:59:36;20.90;;;13.43;;
45684;SDS011;46836;48.388;16.210;2024-01-30T04:02:03;21.52;;;14.48;;
45684;SDS011;46836;48.388;16.210;2024-01-30T04:04:31;19.20;;;12.95;;
45684;SDS011;46836;48.388;16.210;2024-01-30T04:06:58;21.25;;;14.38;;
45684;SDS011;46836;48.388;16.210;2024-01-30T04:09:25;20.60;;;14.00;;
45684;SDS011;46836;48.388;16.210;2024-01-30T04:11:53;21.77;;;14.50;;
45684;SDS011;46836;48.388;16.210;2024-01-30T04:14:20;20.85;;;13.57;;
45684;SDS011;46836;48.388;16.210;2024-01-30T04:16:47;22.13;;;13.45;;
45684;SDS011;46836;48.388;16.210;2024-01-30T04:19:13;21.77;;;14.32;;
45684;SDS011;46836;48.388;16.210;2024-01-30T04:21:41;23.45;;;13.55;;
45684;SDS011;46836;48.388;16.210;2024-01-30T04:24:08;22.08;;;13.95;;
45684;SDS011;46836;48.388;16.210;2024-01-30T04:26:35;18.88;;;13.57;;
45684;SDS011;46836;48.388;16.210;2024-01-30T04:29:03;20.38;;;13.50;;
45684;SDS011;46836;48.388;16.210;2024-01-30T04:31:30;20.00;;;13.55;;
45684;SDS011;46836;48.388;16.210;2024-01-30T04:33:57;27.38;;;13.95;;
45684;SDS011;46836;48.388;16.210;2024-01-30T04:36:24;20.58;;;13.35;;
45684;SDS011;46836;48.388;16.210;2024-01-30T04:38:51;23.65;;;14.73;;
45684;SDS011;46836;48.388;16.210;2024-01-30T04:41:18;21.02;;;14.35;;
45684;SDS011;46836;48.388;16.210;2024-01-30T04:43:45;18.83;;;13.40;;
45684;SDS011;46836;48.388;16.210;2024-01-30T04:46:12;21.02;;;13.20;;
45684;SDS011;46836;48.388;16.210;2024-01-30T04:48:39;21.90;;;14.40;;
45684;SDS011;46836;48.388;16.210;2024-01-30T04:51:07;25.80;;;15.50;;
45684;SDS011;46836;48.388;16.210;2024-01-30T04:53:34;24.42;;;14.35;;
45684;SDS011;46836;48.388;16.210;2024-01-30T04:56:01;21.52;;;13.90;;
45684;SDS011;46836;48.388;16.210;2024-01-30T04:58:28;23.50;;;14.20;;
45684;SDS011;46836;48.388;16.210;2024-01-30T05:00:55;25.02;;;14.70;;
45684;SDS011;46836;48.388;16.210;2024-01-30T05:03:24;19.92;;;13.77;;
45684;SDS011;46836;48.388;16.210;2024-01-30T05:05:51;20.15;;;14.63;;
45684;SDS011;46836;48.388;16.210;2024-01-30T05:08:18;19.52;;;13.80;;
45684;SDS011;46836;48.388;16.210;2024-01-30T05:10:45;25.45;;;14.65;;
45684;SDS011;46836;48.388;16.210;2024-01-30T05:13:12;21.05;;;14.10;;
45684;SDS011;46836;48.388;16.210;2024-01-30T05:15:40;24.92;;;15.05;;
45684;SDS011;46836;48.388;16.210;2024-01-30T05:18:07;23.05;;;15.40;;
45684;SDS011;46836;48.388;16.210;2024-01-30T05:20:34;29.98;;;16.33;;
45684;SDS011;46836;48.388;16.210;2024-01-30T05:23:01;28.17;;;16.30;;
45684;SDS011;46836;48.388;16.210;2024-01-30T05:25:29;22.58;;;14.27;;
45684;SDS011;46836;48.388;16.210;2024-01-30T05:27:56;22.80;;;14.55;;
45684;SDS011;46836;48.388;16.210;2024-01-30T05:30:23;22.48;;;15.15;;
45684;SDS011;46836;48.388;16.210;2024-01-30T05:32:50;30.98;;;18.33;;
45684;SDS011;46836;48.388;16.210;2024-01-30T05:35:17;23.40;;;15.45;;
45684;SDS011;46836;48.388;16.210;2024-01-30T05:37:50;25.02;;;15.30;;
45684;SDS011;46836;48.388;16.210;2024-01-30T05:40:17;22.00;;;16.00;;
45684;SDS011;46836;48.388;16.210;2024-01-30T05:42:44;24.40;;;15.68;;
45684;SDS011;46836;48.388;16.210;2024-01-30T05:45:11;24.83;;;15.43;;
45684;SDS011;46836;48.388;16.210;2024-01-30T05:47:39;28.17;;;15.30;;
45684;SDS011;46836;48.388;16.210;2024-01-30T05:50:06;20.85;;;14.90;;
45684;SDS011;46836;48.388;16.210;2024-01-30T05:52:34;21.88;;;15.68;;
45684;SDS011;46836;48.388;16.210;2024-01-30T05:55:01;24.13;;;16.48;;
45684;SDS011;46836;48.388;16.210;2024-01-30T05:57:29;25.83;;;15.30;;
45684;SDS011;46836;48.388;16.210;2024-01-30T05:59:56;23.88;;;14.43;;
45684;SDS011;46836;48.388;16.210;2024-01-30T06:02:23;22.50;;;14.38;;
45684;SDS011;46836;48.388;16.210;2024-01-30T06:04:50;22.60;;;14.60;;
45684;SDS011;46836;48.388;16.210;2024-01-30T06:07:17;20.63;;;14.73;;
45684;SDS011;46836;48.388;16.210;2024-01-30T06:09:45;24.98;;;16.20;;
45684;SDS011;46836;48.388;16.210;2024-01-30T06:12:13;28.13;;;16.35;;
45684;SDS011;46836;48.388;16.210;2024-01-30T06:14:40;22.90;;;15.13;;
45684;SDS011;46836;48.388;16.210;2024-01-30T06:17:12;24.52;;;16.02;;
45684;SDS011;46836;48.388;16.210;2024-01-30T06:19:40;24.50;;;15.48;;
45684;SDS011;46836;48.388;16.210;2024-01-30T06:22:08;24.35;;;15.70;;
45684;SDS011;46836;48.388;16.210;2024-01-30T06:24:35;23.77;;;14.70;;
45684;SDS011;46836;48.388;16.210;2024-01-30T06:27:02;26.40;;;15.80;;
45684;SDS011;46836;48.388;16.210;2024-01-30T06:29:29;23.15;;;15.20;;
45684;SDS011;46836;48.388;16.210;2024-01-30T06:31:56;25.08;;;15.27;;
45684;SDS011;46836;48.388;16.210;2024-01-30T06:34:23;23.05;;;15.18;;
45684;SDS011;46836;48.388;16.210;2024-01-30T06:36:52;21.73;;;14.35;;
45684;SDS011;46836;48.388;16.210;2024-01-30T06:39:19;24.65;;;16.10;;
45684;SDS011;46836;48.388;16.210;2024-01-30T06:41:47;28.67;;;15.23;;
45684;SDS011;46836;48.388;16.210;2024-01-30T06:44:14;27.23;;;16.45;;
45684;SDS011;46836;48.388;16.210;2024-01-30T06:46:41;22.80;;;15.63;;
45684;SDS011;46836;48.388;16.210;2024-01-30T06:49:08;24.80;;;16.25;;
45684;SDS011;46836;48.388;16.210;2024-01-30T06:51:35;31.40;;;17.75;;
45684;SDS011;46836;48.388;16.210;2024-01-30T06:54:02;33.35;;;15.75;;
45684;SDS011;46836;48.388;16.210;2024-01-30T06:56:30;22.65;;;15.55;;
45684;SDS011;46836;48.388;16.210;2024-01-30T06:58:57;27.25;;;14.95;;
45684;SDS011;46836;48.388;16.210;2024-01-30T07:01:29;24.95;;;16.45;;
45684;SDS011;46836;48.388;16.210;2024-01-30T07:03:57;22.17;;;14.88;;
45684;SDS011;46836;48.388;16.210;2024-01-30T07:06:24;22.33;;;14.88;;
45684;SDS011;46836;48.388;16.210;2024-01-30T07:08:51;25.90;;;15.55;;
45684;SDS011;46836;48.388;16.210;2024-01-30T07:11:19;24.67;;;15.55;;
45684;SDS011;46836;48.388;16.210;2024-01-30T07:13:48;25.92;;;15.80;;
45684;SDS011;46836;48.388;16.210;2024-01-30T07:16:18;22.55;;;14.15;;
45684;SDS011;46836;48.388;16.210;2024-01-30T07:18:45;30.23;;;14.93;;
45684;SDS011;46836;48.388;16.210;2024-01-30T07:21:13;28.30;;;16.00;;
45684;SDS011;46836;48.388;16.210;2024-01-30T07:23:42;25.75;;;15.30;;
45684;SDS011;46836;48.388;16.210;2024-01-30T07:26:09;22.00;;;15.27;;
45684;SDS011;46836;48.388;16.210;2024-01-30T07:28:36;23.42;;;15.75;;
45684;SDS011;46836;48.388;16.210;2024-01-30T07:31:03;26.85;;;15.63;;
45684;SDS011;46836;48.388;16.210;2024-01-30T07:33:30;21.45;;;15.80;;
45684;SDS011;46836;48.388;16.210;2024-01-30T07:35:57;22.42;;;14.43;;
45684;SDS011;46836;48.388;16.210;2024-01-30T07:38:24;23.80;;;16.08;;
45684;SDS011;46836;48.388;16.210;2024-01-30T07:40:51;22.77;;;15.02;;
45684;SDS011;46836;48.388;16.210;2024-01-30T07:43:19;24.25;;;16.30;;
45684;SDS011;46836;48.388;16.210;2024-01-30T07:45:46;23.95;;;15.10;;
45684;SDS011;46836;48.388;16.210;2024-01-30T07:48:14;21.35;;;14.82;;
45684;SDS011;46836;48.388;16.210;2024-01-30T07:50:41;23.17;;;14.05;;
45684;SDS011;46836;48.388;16.210;2024-01-30T07:53:08;23.30;;;15.15;;
45684;SDS011;46836;48.388;16.210;2024-01-30T07:55:47;26.65;;;15.63;;
45684;SDS011;46836;48.388;16.210;2024-01-30T07:58:14;21.70;;;14.75;;
45684;SDS011;46836;48.388;16.210;2024-01-30T08:00:41;26.30;;;14.32;;
45684;SDS011;46836;48.388;16.210;2024-01-30T08:03:09;22.40;;;14.82;;
45684;SDS011;46836;48.388;16.210;2024-01-30T08:05:36;19.40;;;14.77;;
45684;SDS011;46836;48.388;16.210;2024-01-30T08:08:06;19.80;;;13.32;;
45684;SDS011;46836;48.388;16.210;2024-01-30T08:10:34;21.15;;;13.70;;
45684;SDS011;46836;48.388;16.210;2024-01-30T08:13:01;24.35;;;14.90;;
45684;SDS011;46836;48.388;16.210;2024-01-30T08:15:28;22.60;;;16.30;;
45684;SDS011;46836;48.388;16.210;2024-01-30T08:17:56;21.90;;;14.82;;
45684;SDS011;46836;48.388;16.210;2024-01-30T08:20:24;23.45;;;14.55;;
45684;SDS011;46836;48.388;16.210;2024-01-30T08:22:52;21.08;;;14.23;;
45684;SDS011;46836;48.388;16.210;2024-01-30T08:25:19;20.77;;;15.52;;
45684;SDS011;46836;48.388;16.210;2024-01-30T08:27:46;21.30;;;15.05;;
45684;SDS011;46836;48.388;16.210;2024-01-30T08:30:13;22.35;;;15.35;;
45684;SDS011;46836;48.388;16.210;2024-01-30T08:32:41;20.45;;;15.40;;
45684;SDS011;46836;48.388;16.210;2024-01-30T08:35:08;22.63;;;15.88;;
45684;SDS011;46836;48.388;16.210;2024-01-30T08:37:35;21.27;;;16.15;;
45684;SDS011;46836;48.388;16.210;2024-01-30T08:40:03;21.20;;;14.57;;
45684;SDS011;46836;48.388;16.210;2024-01-30T08:42:31;27.20;;;15.90;;
45684;SDS011;46836;48.388;16.210;2024-01-30T08:44:59;21.25;;;15.45;;
45684;SDS011;46836;48.388;16.210;2024-01-30T08:47:26;19.67;;;15.10;;
45684;SDS011;46836;48.388;16.210;2024-01-30T08:49:54;21.90;;;15.90;;
45684;SDS011;46836;48.388;16.210;2024-01-30T08:52:21;21.85;;;14.55;;
45684;SDS011;46836;48.388;16.210;2024-01-30T08:54:48;19.70;;;14.70;;
45684;SDS011;46836;48.388;16.210;2024-01-30T08:57:15;26.63;;;16.00;;
45684;SDS011;46836;48.388;16.210;2024-01-30T08:59:42;26.15;;;17.98;;
45684;SDS011;46836;48.388;16.210;2024-01-30T09:02:13;25.70;;;17.35;;
45684;SDS011;46836;48.388;16.210;2024-01-30T09:04:42;24.23;;;16.85;;
45684;SDS011;46836;48.388;16.210;2024-01-30T09:07:10;24.30;;;18.55;;
45684;SDS011;46836;48.388;16.210;2024-01-30T09:09:38;23.23;;;16.63;;
45684;SDS011;46836;48.388;16.210;2024-01-30T09:12:08;26.52;;;18.30;;
45684;SDS011;46836;48.388;16.210;2024-01-30T09:14:38;25.40;;;17.02;;
45684;SDS011;46836;48.388;16.210;2024-01-30T09:17:07;24.77;;;16.70;;
45684;SDS011;46836;48.388;16.210;2024-01-30T09:19:35;24.60;;;16.67;;
45684;SDS011;46836;48.388;16.210;2024-01-30T09:22:02;22.80;;;16.92;;
45684;SDS011;46836;48.388;16.210;2024-01-30T09:24:30;26.45;;;16.95;;
45684;SDS011;46836;48.388;16.210;2024-01-30T09:26:57;29.73;;;17.98;;
45684;SDS011;46836;48.388;16.210;2024-01-30T09:29:24;27.50;;;18.00;;
45684;SDS011;46836;48.388;16.210;2024-01-30T09:31:52;25.15;;;16.77;;
45684;SDS011;46836;48.388;16.210;2024-01-30T09:34:20;25.42;;;17.52;;
45684;SDS011;46836;48.388;16.210;2024-01-30T09:36:48;26.23;;;17.02;;
45684;SDS011;46836;48.388;16.210;2024-01-30T09:39:15;27.00;;;17.60;;
45684;SDS011;46836;48.388;16.210;2024-01-30T09:41:48;22.88;;;17.10;;
45684;SDS011;46836;48.388;16.210;2024-01-30T09:44:18;23.65;;;17.50;;
45684;SDS011;46836;48.388;16.210;2024-01-30T09:46:47;21.35;;;17.73;;
45684;SDS011;46836;48.388;16.210;2024-01-30T09:49:14;26.20;;;17.75;;
45684;SDS011;46836;48.388;16.210;2024-01-30T09:51:46;21.40;;;17.23;;
45684;SDS011;46836;48.388;16.210;2024-01-30T09:54:15;23.73;;;18.90;;
45684;SDS011;46836;48.388;16.210;2024-01-30T09:56:43;25.60;;;18.40;;
45684;SDS011;46836;48.388;16.210;2024-01-30T09:59:10;25.85;;;18.30;;
45684;SDS011;46836;48.388;16.210;2024-01-30T10:01:37;25.33;;;18.15;;
45684;SDS011;46836;48.388;16.210;2024-01-30T10:04:07;24.58;;;18.00;;
45684;SDS011;46836;48.388;16.210;2024-01-30T10:06:34;30.48;;;20.13;;
45684;SDS011;46836;48.388;16.210;2024-01-30T10:09:01;27.33;;;18.70;;
45684;SDS011;46836;48.388;16.210;2024-01-30T10:11:28;30.13;;;18.83;;
45684;SDS011;46836;48.388;16.210;2024-01-30T10:13:56;27.95;;;19.45;;
45684;SDS011;46836;48.388;16.210;2024-01-30T10:16:23;29.23;;;18.55;;
45684;SDS011;46836;48.388;16.210;2024-01-30T10:18:51;32.72;;;21.10;;
45684;SDS011;46836;48.388;16.210;2024-01-30T10:21:18;32.00;;;21.80;;
45684;SDS011;46836;48.388;16.210;2024-01-30T10:23:45;37.67;;;23.63;;
45684;SDS011;46836;48.388;16.210;2024-01-30T10:26:12;30.73;;;23.05;;
45684;SDS011;46836;48.388;16.210;2024-01-30T10:28:40;38.45;;;22.58;;
45684;SDS011;46836;48.388;16.210;2024-01-30T10:31:07;35.38;;;21.70;;
45684;SDS011;46836;48.388;16.210;2024-01-30T10:33:34;28.70;;;20.65;;
45684;SDS011;46836;48.388;16.210;2024-01-30T10:36:03;30.83;;;19.98;;
45684;SDS011;46836;48.388;16.210;2024-01-30T10:38:32;30.08;;;20.20;;
45684;SDS011;46836;48.388;16.210;2024-01-30T10:41:00;26.23;;;18.65;;
45684;SDS011;46836;48.388;16.210;2024-01-30T10:43:31;26.10;;;18.58;;
45684;SDS011;46836;48.388;16.210;2024-01-30T10:46:04;24.77;;;18.38;;
45684;SDS011;46836;48.388;16.210;2024-01-30T10:48:56;27.92;;;20.27;;
45684;SDS011;46836;48.388;16.210;2024-01-30T10:51:27;26.58;;;18.88;;
45684;SDS011;46836;48.388;16.210;2024-01-30T10:53:55;26.60;;;19.80;;
45684;SDS011;46836;48.388;16.210;2024-01-30T10:56:24;35.53;;;21.85;;
45684;SDS011;46836;48.388;16.210;2024-01-30T10:58:52;31.95;;;21.05;;
45684;SDS011;46836;48.388;16.210;2024-01-30T11:01:20;33.28;;;21.20;;
45684;SDS011;46836;48.388;16.210;2024-01-30T11:03:52;31.63;;;21.92;;
45684;SDS011;46836;48.388;16.210;2024-01-30T11:06:23;34.58;;;23.13;;
45684;SDS011;46836;48.388;16.210;2024-01-30T11:09:04;31.17;;;21.23;;
45684;SDS011;46836;48.388;16.210;2024-01-30T11:14:16;35.05;;;22.95;;
45684;SDS011;46836;48.388;16.210;2024-01-30T11:16:48;34.47;;;22.55;;
45684;SDS011;46836;48.388;16.210;2024-01-30T11:19:21;35.42;;;22.17;;
45684;SDS011;46836;48.388;16.210;2024-01-30T11:21:54;33.20;;;23.30;;
45684;SDS011;46836;48.388;16.210;2024-01-30T11:24:24;31.85;;;21.23;;
45684;SDS011;46836;48.388;16.210;2024-01-30T11:26:58;36.00;;;23.48;;
45684;SDS011;46836;48.388;16.210;2024-01-30T11:29:27;42.58;;;24.25;;
45684;SDS011;46836;48.388;16.210;2024-01-30T11:31:55;36.20;;;24.85;;
45684;SDS011;46836;48.388;16.210;2024-01-30T11:34:23;40.55;;;22.98;;
45684;SDS011;46836;48.388;16.210;2024-01-30T11:36:52;36.28;;;23.67;;
45684;SDS011;46836;48.388;16.210;2024-01-30T11:39:26;43.45;;;23.17;;
45684;SDS011;46836;48.388;16.210;2024-01-30T11:41:55;38.38;;;24.02;;
45684;SDS011;46836;48.388;16.210;2024-01-30T11:44:23;35.75;;;23.23;;
45684;SDS011;46836;48.388;16.210;2024-01-30T11:46:51;36.15;;;23.05;;
45684;SDS011;46836;48.388;16.210;2024-01-30T11:49:19;35.45;;;23.20;;
45684;SDS011;46836;48.388;16.210;2024-01-30T11:51:47;34.47;;;23.35;;
45684;SDS011;46836;48.388;16.210;2024-01-30T11:54:18;40.35;;;25.23;;
45684;SDS011;46836;48.388;16.210;2024-01-30T11:56:45;37.95;;;22.92;;
45684;SDS011;46836;48.388;16.210;2024-01-30T11:59:13;37.97;;;24.52;;
45684;SDS011;46836;48.388;16.210;2024-01-30T12:01:40;35.90;;;22.67;;
45684;SDS011;46836;48.388;16.210;2024-01-30T12:04:08;37.83;;;23.40;;
45684;SDS011;46836;48.388;16.210;2024-01-30T12:06:38;35.00;;;23.23;;
45684;SDS011;46836;48.388;16.210;2024-01-30T12:09:06;33.45;;;23.10;;
45684;SDS011;46836;48.388;16.210;2024-01-30T12:11:48;35.92;;;22.95;;
45684;SDS011;46836;48.388;16.210;2024-01-30T12:14:16;32.58;;;22.05;;
45684;SDS011;46836;48.388;16.210;2024-01-30T12:16:48;34.00;;;22.60;;
45684;SDS011;46836;48.388;16.210;2024-01-30T12:19:22;35.55;;;24.73;;
45684;SDS011;46836;48.388;16.210;2024-01-30T12:21:58;37.78;;;22.73;;
45684;SDS011;46836;48.388;16.210;2024-01-30T12:24:26;33.40;;;22.83;;
45684;SDS011;46836;48.388;16.210;2024-01-30T12:26:57;37.97;;;22.55;;
45684;SDS011;46836;48.388;16.210;2024-01-30T12:29:25;32.33;;;22.70;;
45684;SDS011;46836;48.388;16.210;2024-01-30T12:31:58;36.10;;;24.88;;
45684;SDS011;46836;48.388;16.210;2024-01-30T12:34:26;37.40;;;23.92;;
45684;SDS011;46836;48.388;16.210;2024-01-30T12:36:54;46.38;;;25.30;;
45684;SDS011;46836;48.388;16.210;2024-01-30T12:39:22;44.53;;;25.45;;
45684;SDS011;46836;48.388;16.210;2024-01-30T12:41:49;41.03;;;25.30;;
45684;SDS011;46836;48.388;16.210;2024-01-30T12:44:18;35.22;;;24.02;;
45684;SDS011;46836;48.388;16.210;2024-01-30T12:46:46;35.22;;;24.15;;
45684;SDS011;46836;48.388;16.210;2024-01-30T12:49:14;38.13;;;26.05;;
45684;SDS011;46836;48.388;16.210;2024-01-30T12:51:42;36.33;;;25.08;;
45684;SDS011;46836;48.388;16.210;2024-01-30T12:54:09;39.45;;;25.50;;
45684;SDS011;46836;48.388;16.210;2024-01-30T12:56:39;37.08;;;24.40;;
45684;SDS011;46836;48.388;16.210;2024-01-30T12:59:06;37.05;;;25.05;;
45684;SDS011;46836;48.388;16.210;2024-01-30T13:01:33;38.65;;;25.30;;
45684;SDS011;46836;48.388;16.210;2024-01-30T13:04:00;34.72;;;23.85;;
45684;SDS011;46836;48.388;16.210;2024-01-30T13:06:27;38.45;;;25.27;;
45684;SDS011;46836;48.388;16.210;2024-01-30T13:08:55;33.35;;;22.90;;
45684;SDS011;46836;48.388;16.210;2024-01-30T13:11:22;35.00;;;25.48;;
45684;SDS011;46836;48.388;16.210;2024-01-30T13:13:49;35.92;;;24.80;;
45684;SDS011;46836;48.388;16.210;2024-01-30T13:16:16;34.72;;;24.88;;
45684;SDS011;46836;48.388;16.210;2024-01-30T13:18:45;35.53;;;25.55;;
45684;SDS011;46836;48.388;16.210;2024-01-30T13:21:13;35.80;;;25.20;;
45684;SDS011;46836;48.388;16.210;2024-01-30T13:23:40;34.00;;;24.05;;
45684;SDS011;46836;48.388;16.210;2024-01-30T13:26:07;38.33;;;26.00;;
45684;SDS011;46836;48.388;16.210;2024-01-30T13:28:34;41.70;;;26.63;;
45684;SDS011;46836;48.388;16.210;2024-01-30T13:31:01;44.65;;;26.40;;
45684;SDS011;46836;48.388;16.210;2024-01-30T13:33:29;37.03;;;26.00;;
45684;SDS011;46836;48.388;16.210;2024-01-30T13:35:56;38.35;;;26.40;;
45684;SDS011;46836;48.388;16.210;2024-01-30T13:38:23;36.72;;;25.17;;
45684;SDS011;46836;48.388;16.210;2024-01-30T13:40:50;40.80;;;24.85;;
45684;SDS011;46836;48.388;16.210;2024-01-30T13:43:17;43.08;;;24.27;;
45684;SDS011;46836;48.388;16.210;2024-01-30T13:45:44;34.42;;;24.17;;
45684;SDS011;46836;48.388;16.210;2024-01-30T13:48:12;40.70;;;24.80;;
45684;SDS011;46836;48.388;16.210;2024-01-30T13:50:39;43.33;;;26.45;;
45684;SDS011;46836;48.388;16.210;2024-01-30T13:53:07;39.67;;;25.60;;
45684;SDS011;46836;48.388;16.210;2024-01-30T13:55:34;36.40;;;25.23;;
45684;SDS011;46836;48.388;16.210;2024-01-30T13:58:01;43.10;;;25.80;;
45684;SDS011;46836;48.388;16.210;2024-01-30T14:00:29;39.47;;;24.65;;
45684;SDS011;46836;48.388;16.210;2024-01-30T14:02:56;38.70;;;25.42;;
45684;SDS011;46836;48.388;16.210;2024-01-30T14:05:26;36.67;;;23.73;;
45684;SDS011;46836;48.388;16.210;2024-01-30T14:07:57;40.63;;;27.17;;
45684;SDS011;46836;48.388;16.210;2024-01-30T14:10:26;32.78;;;24.33;;
45684;SDS011;46836;48.388;16.210;2024-01-30T14:12:53;34.00;;;23.70;;
45684;SDS011;46836;48.388;16.210;2024-01-30T14:15:20;38.67;;;25.65;;